createdAt,value
2023-05-06T00:00:00.118Z,9.58
2023-05-06T00:00:13.208Z,9.62
2023-05-06T00:00:22.675Z,10.13
2023-05-06T00:00:31.973Z,10.43
2023-05-06T00:00:43.012Z,10.80
2023-05-06T00:00:52.854Z,10.66
2023-05-06T00:01:02.552Z,10.53
2023-05-06T00:01:17.410Z,10.40
2023-05-06T00:01:25.539Z,10.20
2023-05-06T00:01:33.802Z,10.47
2023-05-06T00:01:43.743Z,10.17
2023-05-06T00:01:58.462Z,10.00
2023-05-06T00:02:06.246Z,10.04
2023-05-06T00:02:26.662Z,10.18
2023-05-06T00:02:34.017Z,10.10
2023-05-06T00:02:42.190Z,9.98
2023-05-06T00:02:49.713Z,10.12
2023-05-06T00:03:04.541Z,10.00
2023-05-06T00:03:14.363Z,9.90
2023-05-06T00:03:29.912Z,10.15
2023-05-06T00:03:37.432Z,10.10
2023-05-06T00:03:44.931Z,10.30
2023-05-06T00:03:52.460Z,10.22
2023-05-06T00:04:11.314Z,9.80
2023-05-06T00:04:19.050Z,9.67
2023-05-06T00:04:34.472Z,9.47
2023-05-06T00:04:41.861Z,9.23
2023-05-06T00:04:49.164Z,9.27
2023-05-06T00:04:56.975Z,9.38
2023-05-06T00:05:12.318Z,9.65
2023-05-06T00:05:20.389Z,9.57
2023-05-06T00:05:37.471Z,10.02
2023-05-06T00:05:46.328Z,10.24
2023-05-06T00:05:54.729Z,10.38
2023-05-06T00:06:05.645Z,10.36
2023-05-06T00:06:12.880Z,10.20
2023-05-06T00:06:27.673Z,10.12
2023-05-06T00:06:42.769Z,9.87
2023-05-06T00:06:50.056Z,9.97
2023-05-06T00:06:57.568Z,10.07
2023-05-06T00:07:14.724Z,10.46
2023-05-06T00:07:22.469Z,10.31
2023-05-06T00:07:29.805Z,10.47
2023-05-06T00:07:47.016Z,10.11
2023-05-06T00:07:54.614Z,10.10
2023-05-06T00:08:03.736Z,10.13
2023-05-06T00:08:18.293Z,10.13
2023-05-06T00:08:26.397Z,10.07
2023-05-06T00:08:33.679Z,9.57
2023-05-06T00:08:50.656Z,9.23
2023-05-06T00:08:57.908Z,9.33
2023-05-06T00:09:05.331Z,9.40
2023-05-06T00:09:20.024Z,9.42
2023-05-06T00:09:28.203Z,9.47
2023-05-06T00:09:35.434Z,9.30
2023-05-06T00:09:57.017Z,8.83
2023-05-06T00:10:06.749Z,9.07
2023-05-06T00:10:14.198Z,9.36
2023-05-06T00:10:21.559Z,9.40
2023-05-06T00:10:31.528Z,9.35
2023-05-06T00:10:38.662Z,9.57
2023-05-06T00:11:00.261Z,9.80
2023-05-06T00:11:07.516Z,9.32
2023-05-06T00:11:14.857Z,8.93
2023-05-06T00:11:22.034Z,9.40
2023-05-06T00:11:36.742Z,9.37
2023-05-06T00:11:43.955Z,9.37
2023-05-06T00:12:06.364Z,9.83
2023-05-06T00:12:16.240Z,9.68
2023-05-06T00:12:23.440Z,9.56
2023-05-06T00:12:30.875Z,9.37
2023-05-06T00:12:38.135Z,8.90
2023-05-06T00:12:45.687Z,9.07
2023-05-06T00:13:08.373Z,10.00
2023-05-06T00:13:25.867Z,10.00
2023-05-06T00:13:33.157Z,10.00
2023-05-06T00:13:43.957Z,10.08
2023-05-06T00:13:54.205Z,9.80
2023-05-06T00:14:01.443Z,9.38
2023-05-06T00:14:08.605Z,8.52
2023-05-06T00:14:30.296Z,9.33
2023-05-06T00:14:37.643Z,9.62
2023-05-06T00:14:44.921Z,9.40
2023-05-06T00:15:01.040Z,9.21
2023-05-06T00:15:09.171Z,9.52
2023-05-06T00:15:19.364Z,10.17
2023-05-06T00:15:34.081Z,10.32
2023-05-06T00:15:41.416Z,10.07
2023-05-06T00:15:48.610Z,9.93
2023-05-06T00:16:07.858Z,9.82
2023-05-06T00:16:15.481Z,9.61
2023-05-06T00:16:23.742Z,9.67
2023-05-06T00:16:38.072Z,9.67
2023-05-06T00:16:47.476Z,9.68
2023-05-06T00:16:54.916Z,9.48
2023-05-06T00:17:12.032Z,9.51
2023-05-06T00:17:19.290Z,9.87
2023-05-06T00:17:26.623Z,10.27
2023-05-06T00:17:41.060Z,10.72
2023-05-06T00:17:48.280Z,10.77
2023-05-06T00:17:55.944Z,10.93
2023-05-06T00:18:22.596Z,11.13
2023-05-06T00:18:31.880Z,10.63
2023-05-06T00:18:39.099Z,10.43
2023-05-06T00:18:46.307Z,10.20
2023-05-06T00:18:53.618Z,10.20
2023-05-06T00:19:00.822Z,10.03
2023-05-06T00:19:31.493Z,10.23
2023-05-06T00:19:40.381Z,10.49
2023-05-06T00:19:48.358Z,10.57
2023-05-06T00:19:56.540Z,10.67
2023-05-06T00:20:07.176Z,10.52
2023-05-06T00:20:15.031Z,10.58
2023-05-06T00:20:38.873Z,10.66
2023-05-06T00:20:46.178Z,10.56
2023-05-06T00:20:53.400Z,10.43
2023-05-06T00:21:00.959Z,10.18
2023-05-06T00:21:10.134Z,10.12
2023-05-06T00:21:17.463Z,9.99
2023-05-06T00:21:42.058Z,10.60
2023-05-06T00:21:49.592Z,10.55
2023-05-06T00:21:57.472Z,10.67
2023-05-06T00:22:05.876Z,10.30
2023-05-06T00:22:13.021Z,10.03
2023-05-06T00:22:20.416Z,10.40
2023-05-06T00:22:48.957Z,11.02
2023-05-06T00:22:56.400Z,10.77
2023-05-06T00:23:03.598Z,10.70
2023-05-06T00:23:13.469Z,10.63
2023-05-06T00:23:20.743Z,10.39
2023-05-06T00:23:27.918Z,10.67
2023-05-06T00:23:49.383Z,10.90
2023-05-06T00:23:56.684Z,10.73
2023-05-06T00:24:04.487Z,10.76
2023-05-06T00:24:19.512Z,11.07
2023-05-06T00:24:26.775Z,11.27
2023-05-06T00:24:38.646Z,11.14
2023-05-06T00:24:53.006Z,10.92
2023-05-06T00:25:00.305Z,10.87
2023-05-06T00:25:08.339Z,10.77
2023-05-06T00:25:23.017Z,10.00
2023-05-06T00:25:30.219Z,10.20
2023-05-06T00:25:41.436Z,10.47
2023-05-06T00:25:55.985Z,11.17
2023-05-06T00:26:03.201Z,10.80
2023-05-06T00:26:10.767Z,10.88
2023-05-06T00:26:28.444Z,10.92
2023-05-06T00:26:35.933Z,10.61
2023-05-06T00:26:43.229Z,10.32
2023-05-06T00:27:00.488Z,10.61
2023-05-06T00:27:09.330Z,10.96
2023-05-06T00:27:16.626Z,10.93
2023-05-06T00:27:32.388Z,10.94
2023-05-06T00:27:39.699Z,10.72
2023-05-06T00:27:47.164Z,10.83
2023-05-06T00:28:04.685Z,10.93
2023-05-06T00:28:13.777Z,10.79
2023-05-06T00:28:21.094Z,10.87
2023-05-06T00:28:35.475Z,10.32
2023-05-06T00:28:42.746Z,10.22
2023-05-06T00:28:49.939Z,10.10
2023-05-06T00:29:12.873Z,11.60
2023-05-06T00:29:20.093Z,11.66
2023-05-06T00:29:28.114Z,11.73
2023-05-06T00:29:38.235Z,11.40
2023-05-06T00:29:46.461Z,11.63
2023-05-06T00:29:53.691Z,11.50
2023-05-06T00:30:13.212Z,11.70
2023-05-06T00:30:20.449Z,11.97
2023-05-06T00:30:36.602Z,11.90
2023-05-06T00:30:43.809Z,11.87
2023-05-06T00:30:51.541Z,11.77
2023-05-06T00:31:04.105Z,11.56
2023-05-06T00:31:18.777Z,11.23
2023-05-06T00:31:26.019Z,11.57
2023-05-06T00:31:41.231Z,11.26
2023-05-06T00:31:48.532Z,11.43
2023-05-06T00:31:56.172Z,11.37
2023-05-06T00:32:06.400Z,11.75
2023-05-06T00:32:20.778Z,11.28
2023-05-06T00:32:29.358Z,11.03
2023-05-06T00:32:47.972Z,10.94
2023-05-06T00:32:56.407Z,11.26
2023-05-06T00:33:03.688Z,11.57
2023-05-06T00:33:11.027Z,12.20
2023-05-06T00:33:26.356Z,12.73
2023-05-06T00:33:33.780Z,12.77
2023-05-06T00:33:48.660Z,11.80
2023-05-06T00:34:03.123Z,11.90
2023-05-06T00:34:16.067Z,12.26
2023-05-06T00:34:23.282Z,12.30
2023-05-06T00:34:30.688Z,12.37
2023-05-06T00:34:37.857Z,12.18
2023-05-06T00:34:52.602Z,12.10
2023-05-06T00:35:09.386Z,12.17
2023-05-06T00:35:20.044Z,12.51
2023-05-06T00:35:27.178Z,12.49
2023-05-06T00:35:34.363Z,12.27
2023-05-06T00:35:41.580Z,12.08
2023-05-06T00:35:56.507Z,12.63
2023-05-06T00:36:14.050Z,13.17
2023-05-06T00:36:26.588Z,13.02
2023-05-06T00:36:34.342Z,12.66
2023-05-06T00:36:43.043Z,12.73
2023-05-06T00:36:50.382Z,12.57
2023-05-06T00:36:57.636Z,12.24
2023-05-06T00:37:22.081Z,12.08
2023-05-06T00:37:29.589Z,12.83
2023-05-06T00:37:36.845Z,12.87
2023-05-06T00:37:45.955Z,13.10
2023-05-06T00:37:57.843Z,12.86
2023-05-06T00:38:09.496Z,12.27
2023-05-06T00:38:24.305Z,11.68
2023-05-06T00:38:31.648Z,11.77
2023-05-06T00:38:38.964Z,11.63
2023-05-06T00:38:46.220Z,12.00
2023-05-06T00:39:03.339Z,11.97
2023-05-06T00:39:10.686Z,12.44
2023-05-06T00:39:25.508Z,12.80
2023-05-06T00:39:35.220Z,13.03
2023-05-06T00:39:42.483Z,13.14
2023-05-06T00:39:49.741Z,13.03
2023-05-06T00:40:09.096Z,13.04
2023-05-06T00:40:16.326Z,12.74
2023-05-06T00:40:33.043Z,12.62
2023-05-06T00:40:41.655Z,12.70
2023-05-06T00:40:51.688Z,13.23
2023-05-06T00:40:58.970Z,13.54
2023-05-06T00:41:16.674Z,13.43
2023-05-06T00:41:26.215Z,13.09
2023-05-06T00:41:34.022Z,13.14
2023-05-06T00:41:42.384Z,13.32
2023-05-06T00:41:59.982Z,12.98
2023-05-06T00:42:07.243Z,12.57
2023-05-06T00:42:23.460Z,12.35
2023-05-06T00:42:33.718Z,12.73
2023-05-06T00:42:41.070Z,12.70
2023-05-06T00:42:48.212Z,12.50
2023-05-06T00:43:03.371Z,11.77
2023-05-06T00:43:10.658Z,11.87
2023-05-06T00:43:25.146Z,12.22
2023-05-06T00:43:33.885Z,12.60
2023-05-06T00:43:45.643Z,12.85
2023-05-06T00:43:52.942Z,12.63
2023-05-06T00:44:07.529Z,13.06
2023-05-06T00:44:17.526Z,13.15
2023-05-06T00:44:32.142Z,12.62
2023-05-06T00:44:39.364Z,12.13
2023-05-06T00:44:46.694Z,12.32
2023-05-06T00:44:53.942Z,12.47
2023-05-06T00:45:10.059Z,13.50
2023-05-06T00:45:17.646Z,13.67
2023-05-06T00:45:38.229Z,13.57
2023-05-06T00:45:45.751Z,13.49
2023-05-06T00:45:53.723Z,13.43
2023-05-06T00:46:03.706Z,13.30
2023-05-06T00:46:11.752Z,13.03
2023-05-06T00:46:22.062Z,13.10
2023-05-06T00:46:44.696Z,13.47
2023-05-06T00:46:51.969Z,13.77
2023-05-06T00:47:01.146Z,13.98
2023-05-06T00:47:11.261Z,13.80
2023-05-06T00:47:22.840Z,13.63
2023-05-06T00:47:30.564Z,13.43
2023-05-06T00:47:45.346Z,13.60
2023-05-06T00:47:53.409Z,13.57
2023-05-06T00:48:01.173Z,13.60
2023-05-06T00:48:18.046Z,13.77
2023-05-06T00:48:25.405Z,13.87
2023-05-06T00:48:34.758Z,13.83
2023-05-06T00:48:51.098Z,13.90
2023-05-06T00:48:58.455Z,13.97
2023-05-06T00:49:09.021Z,13.33
2023-05-06T00:49:25.352Z,12.90
2023-05-06T00:49:32.954Z,13.27
2023-05-06T00:49:40.248Z,13.90
2023-05-06T00:49:55.432Z,14.14
2023-05-06T00:50:10.762Z,14.17
2023-05-06T00:50:18.793Z,14.31
2023-05-06T00:50:28.373Z,14.67
2023-05-06T00:50:38.748Z,14.07
2023-05-06T00:50:46.131Z,13.89
2023-05-06T00:51:00.563Z,14.05
2023-05-06T00:51:15.405Z,14.30
2023-05-06T00:51:23.106Z,14.43
2023-05-06T00:51:31.094Z,14.44
2023-05-06T00:51:45.965Z,15.02
2023-05-06T00:51:57.832Z,15.00
2023-05-06T00:52:05.217Z,14.90
2023-05-06T00:52:15.462Z,14.50
2023-05-06T00:52:34.971Z,14.40
2023-05-06T00:52:42.193Z,14.43
2023-05-06T00:52:50.349Z,14.43
2023-05-06T00:52:59.225Z,14.47
2023-05-06T00:53:09.704Z,14.50
2023-05-06T00:53:21.811Z,14.45
2023-05-06T00:53:39.194Z,14.87
2023-05-06T00:53:46.966Z,15.18
2023-05-06T00:53:54.743Z,15.24
2023-05-06T00:54:02.364Z,14.95
2023-05-06T00:54:16.846Z,14.82
2023-05-06T00:54:26.486Z,14.83
2023-05-06T00:54:41.545Z,15.18
2023-05-06T00:54:49.391Z,15.90
2023-05-06T00:54:57.184Z,15.93
2023-05-06T00:55:04.861Z,15.40
2023-05-06T00:55:19.662Z,14.47
2023-05-06T00:55:29.995Z,14.13
2023-05-06T00:55:49.618Z,13.76
2023-05-06T00:55:56.926Z,14.03
2023-05-06T00:56:04.503Z,14.47
2023-05-06T00:56:11.788Z,14.83
2023-05-06T00:56:26.458Z,14.83
2023-05-06T00:56:34.239Z,14.43
2023-05-06T00:56:50.128Z,14.62
2023-05-06T00:56:57.734Z,14.57
2023-05-06T00:57:08.243Z,14.80
2023-05-06T00:57:17.081Z,15.24
2023-05-06T00:57:32.443Z,15.72
2023-05-06T00:57:40.643Z,15.52
2023-05-06T00:57:52.151Z,15.37
2023-05-06T00:57:59.661Z,15.66
2023-05-06T00:58:15.426Z,15.67
2023-05-06T00:58:23.753Z,15.77
2023-05-06T00:58:39.012Z,16.37
2023-05-06T00:58:46.476Z,16.00
2023-05-06T00:58:57.333Z,15.83
2023-05-06T00:59:06.821Z,15.94
2023-05-06T00:59:21.864Z,15.43
2023-05-06T00:59:29.394Z,15.04
2023-05-06T00:59:44.618Z,14.70
2023-05-06T00:59:51.929Z,14.47
2023-05-06T00:59:59.263Z,14.60
2023-05-06T01:00:08.268Z,14.66
2023-05-06T01:00:23.570Z,15.20
2023-05-06T01:00:32.592Z,15.10
2023-05-06T01:00:52.485Z,15.10
2023-05-06T01:01:03.368Z,15.02
2023-05-06T01:01:11.577Z,14.60
2023-05-06T01:01:19.065Z,14.60
2023-05-06T01:01:27.499Z,14.32
2023-05-06T01:01:34.843Z,14.47
2023-05-06T01:01:57.068Z,14.46
2023-05-06T01:02:04.618Z,14.50
2023-05-06T01:02:12.009Z,14.72
2023-05-06T01:02:19.303Z,14.72
2023-05-06T01:02:43.411Z,14.30
2023-05-06T01:02:56.812Z,13.51
2023-05-06T01:03:04.263Z,14.10
2023-05-06T01:03:11.683Z,13.90
2023-05-06T01:03:19.278Z,14.03
2023-05-06T01:03:27.098Z,14.20
2023-05-06T01:03:34.399Z,13.73
2023-05-06T01:03:58.894Z,14.62
2023-05-06T01:04:09.101Z,15.19
2023-05-06T01:04:16.897Z,14.50
2023-05-06T01:04:25.304Z,14.87
2023-05-06T01:04:33.862Z,14.63
2023-05-06T01:04:41.792Z,15.26
2023-05-06T01:05:04.399Z,15.42
2023-05-06T01:05:12.453Z,15.03
2023-05-06T01:05:22.488Z,14.53
2023-05-06T01:05:36.026Z,14.50
2023-05-06T01:05:54.092Z,14.65
2023-05-06T01:06:12.713Z,15.10
2023-05-06T01:06:25.341Z,15.41
2023-05-06T01:06:51.205Z,15.54
2023-05-06T01:07:06.578Z,15.41
2023-05-06T01:07:26.226Z,15.68
2023-05-06T01:07:41.399Z,14.99
2023-05-06T01:08:01.722Z,14.51
2023-05-06T01:08:15.963Z,14.49
2023-05-06T01:08:32.804Z,14.88
2023-05-06T01:08:48.087Z,15.19
2023-05-06T01:09:06.179Z,14.56
2023-05-06T01:09:21.198Z,14.27
2023-05-06T01:09:39.081Z,14.60
2023-05-06T01:09:52.322Z,15.13
2023-05-06T01:10:08.251Z,15.84
2023-05-06T01:10:28.090Z,15.89
2023-05-06T01:10:45.324Z,15.88
2023-05-06T01:10:55.938Z,15.69
2023-05-06T01:11:07.322Z,15.82
2023-05-06T01:11:20.209Z,16.54
2023-05-06T01:11:34.027Z,16.89
2023-05-06T01:11:46.370Z,17.04
2023-05-06T01:11:58.795Z,17.08
2023-05-06T01:12:16.694Z,17.00
2023-05-06T01:12:31.108Z,17.05
2023-05-06T01:12:48.723Z,17.13
2023-05-06T01:13:05.448Z,16.75
2023-05-06T01:13:17.630Z,16.52
2023-05-06T01:13:36.383Z,16.65
2023-05-06T01:13:50.570Z,17.24
2023-05-06T01:14:02.562Z,17.67
2023-05-06T01:14:20.844Z,17.17
2023-05-06T01:14:33.627Z,16.77
2023-05-06T01:14:52.572Z,16.75
2023-05-06T01:15:08.851Z,16.11
2023-05-06T01:15:22.156Z,15.60
2023-05-06T01:15:36.048Z,15.51
2023-05-06T01:15:46.205Z,16.10
2023-05-06T01:15:55.544Z,16.96
2023-05-06T01:16:08.572Z,16.77
2023-05-06T01:16:19.788Z,16.49
2023-05-06T01:16:31.004Z,16.12
2023-05-06T01:16:44.669Z,16.21
2023-05-06T01:16:55.627Z,16.21
2023-05-06T01:17:05.892Z,16.34
2023-05-06T01:17:17.100Z,16.59
2023-05-06T01:17:28.109Z,16.57
2023-05-06T01:17:42.455Z,17.02
2023-05-06T01:17:53.779Z,16.63
2023-05-06T01:18:04.918Z,15.93
2023-05-06T01:18:20.133Z,16.17
2023-05-06T01:18:31.748Z,16.59
2023-05-06T01:18:39.344Z,16.50
2023-05-06T01:18:50.229Z,16.36
2023-05-06T01:19:00.629Z,15.98
2023-05-06T01:19:16.093Z,15.80
2023-05-06T01:19:46.799Z,15.63
2023-05-06T01:19:58.802Z,15.51
2023-05-06T01:20:12.042Z,15.23
2023-05-06T01:20:22.109Z,15.75
2023-05-06T01:20:31.972Z,16.19
2023-05-06T01:20:42.768Z,16.35
2023-05-06T01:20:51.627Z,16.16
2023-05-06T01:21:00.238Z,16.40
2023-05-06T01:21:22.239Z,16.77
2023-05-06T01:21:35.009Z,16.74
2023-05-06T01:21:44.773Z,16.52
2023-05-06T01:21:55.053Z,16.48
2023-05-06T01:22:05.329Z,16.10
2023-05-06T01:22:14.108Z,15.98
2023-05-06T01:22:23.716Z,16.03
2023-05-06T01:22:42.104Z,16.70
2023-05-06T01:22:50.419Z,16.47
2023-05-06T01:22:58.028Z,16.40
2023-05-06T01:23:12.247Z,16.30
2023-05-06T01:23:20.097Z,16.61
2023-05-06T01:23:27.292Z,16.90
2023-05-06T01:23:56.092Z,16.93
2023-05-06T01:24:03.319Z,16.76
2023-05-06T01:24:10.496Z,16.37
2023-05-06T01:24:20.418Z,16.84
2023-05-06T01:24:35.869Z,16.77
2023-05-06T01:24:44.597Z,16.77
2023-05-06T01:24:58.892Z,16.43
2023-05-06T01:25:06.810Z,16.48
2023-05-06T01:25:19.466Z,16.60
2023-05-06T01:25:26.702Z,16.51
2023-05-06T01:25:42.651Z,16.05
2023-05-06T01:25:52.482Z,15.77
2023-05-06T01:25:59.998Z,16.17
2023-05-06T01:26:07.321Z,16.58
2023-05-06T01:26:22.484Z,16.67
2023-05-06T01:26:29.734Z,16.30
2023-05-06T01:26:44.458Z,15.90
2023-05-06T01:26:58.708Z,16.18
2023-05-06T01:27:06.678Z,16.52
2023-05-06T01:27:14.928Z,16.00
2023-05-06T01:27:23.405Z,15.93
2023-05-06T01:27:30.628Z,15.74
2023-05-06T01:27:48.104Z,15.91
2023-05-06T01:28:02.761Z,15.67
2023-05-06T01:28:11.836Z,16.04
2023-05-06T01:28:19.061Z,15.80
2023-05-06T01:28:26.325Z,15.73
2023-05-06T01:28:33.525Z,15.90
2023-05-06T01:28:50.708Z,15.77
2023-05-06T01:29:04.479Z,15.93
2023-05-06T01:29:12.468Z,16.37
2023-05-06T01:29:19.961Z,16.90
2023-05-06T01:29:27.524Z,16.90
2023-05-06T01:29:37.443Z,16.87
2023-05-06T01:29:54.914Z,16.16
2023-05-06T01:30:11.450Z,16.70
2023-05-06T01:30:19.978Z,16.70
2023-05-06T01:30:36.317Z,16.88
2023-05-06T01:30:54.411Z,16.83
2023-05-06T01:31:08.619Z,17.63
2023-05-06T01:31:24.185Z,18.29
2023-05-06T01:31:38.370Z,17.79
2023-05-06T01:31:50.954Z,16.71
2023-05-06T01:32:02.499Z,16.52
2023-05-06T01:32:23.921Z,17.20
2023-05-06T01:32:49.625Z,17.69
2023-05-06T01:33:08.629Z,17.24
2023-05-06T01:33:22.844Z,16.65
2023-05-06T01:33:37.752Z,16.63
2023-05-06T01:33:51.499Z,16.54
2023-05-06T01:34:09.055Z,17.41
2023-05-06T01:34:25.601Z,17.52
2023-05-06T01:34:43.089Z,16.58
2023-05-06T01:34:56.900Z,16.33
2023-05-06T01:35:16.400Z,16.52
2023-05-06T01:35:31.953Z,16.79
2023-05-06T01:35:50.241Z,17.30
2023-05-06T01:36:08.879Z,17.38
2023-05-06T01:36:25.995Z,17.16
2023-05-06T01:36:41.437Z,17.19
2023-05-06T01:36:57.765Z,16.99
2023-05-06T01:37:14.661Z,17.21
2023-05-06T01:37:27.838Z,17.42
2023-05-06T01:37:42.639Z,17.35
2023-05-06T01:37:59.931Z,17.88
2023-05-06T01:38:19.205Z,18.20
2023-05-06T01:38:35.331Z,17.80
2023-05-06T01:38:48.244Z,17.75
2023-05-06T01:39:03.743Z,18.02
2023-05-06T01:39:16.651Z,17.96
2023-05-06T01:39:26.696Z,17.48
2023-05-06T01:39:34.446Z,17.25
2023-05-06T01:39:46.531Z,17.87
2023-05-06T01:39:58.847Z,18.19
2023-05-06T01:40:07.842Z,18.70
2023-05-06T01:40:16.775Z,18.00
2023-05-06T01:40:27.725Z,17.60
2023-05-06T01:40:36.736Z,17.01
2023-05-06T01:40:47.062Z,17.29
2023-05-06T01:41:07.573Z,17.77
2023-05-06T01:41:17.170Z,17.60
2023-05-06T01:41:26.438Z,17.15
2023-05-06T01:41:34.261Z,17.17
2023-05-06T01:41:43.495Z,17.36
2023-05-06T01:41:54.083Z,17.80
2023-05-06T01:42:12.564Z,17.41
2023-05-06T01:42:22.550Z,17.03
2023-05-06T01:42:34.182Z,17.10
2023-05-06T01:42:42.194Z,17.24
2023-05-06T01:42:49.555Z,16.93
2023-05-06T01:42:57.612Z,17.23
2023-05-06T01:43:16.506Z,18.19
2023-05-06T01:43:28.546Z,19.04
2023-05-06T01:43:41.136Z,18.73
2023-05-06T01:43:53.261Z,18.38
2023-05-06T01:44:01.562Z,18.08
2023-05-06T01:44:11.440Z,17.97
2023-05-06T01:44:24.742Z,17.85
2023-05-06T01:44:34.604Z,17.39
2023-05-06T01:44:44.201Z,17.20
2023-05-06T01:45:02.727Z,17.29
2023-05-06T01:45:13.727Z,17.37
2023-05-06T01:45:22.249Z,17.38
2023-05-06T01:45:31.554Z,17.00
2023-05-06T01:45:40.296Z,17.09
2023-05-06T01:45:54.787Z,16.97
2023-05-06T01:46:06.152Z,17.21
2023-05-06T01:46:17.769Z,17.78
2023-05-06T01:46:25.938Z,18.35
2023-05-06T01:46:33.759Z,18.80
2023-05-06T01:46:44.821Z,18.73
2023-05-06T01:46:54.210Z,18.51
2023-05-06T01:47:10.817Z,18.25
2023-05-06T01:47:18.454Z,17.97
2023-05-06T01:47:26.173Z,17.80
2023-05-06T01:47:34.327Z,18.03
2023-05-06T01:47:44.956Z,17.67
2023-05-06T01:48:00.305Z,17.33
2023-05-06T01:48:16.233Z,17.72
2023-05-06T01:48:26.045Z,17.85
2023-05-06T01:48:35.149Z,17.67
2023-05-06T01:48:43.232Z,17.93
2023-05-06T01:48:54.657Z,18.47
2023-05-06T01:49:06.006Z,18.16
2023-05-06T01:49:17.103Z,17.60
2023-05-06T01:49:29.181Z,17.51
2023-05-06T01:49:36.952Z,17.56
2023-05-06T01:49:44.461Z,17.33
2023-05-06T01:50:02.790Z,17.07
2023-05-06T01:50:11.169Z,17.37
2023-05-06T01:50:18.680Z,17.47
2023-05-06T01:50:34.085Z,17.33
2023-05-06T01:50:41.668Z,17.46
2023-05-06T01:50:49.210Z,17.38
2023-05-06T01:51:08.379Z,16.99
2023-05-06T01:51:15.573Z,16.94
2023-05-06T01:51:23.438Z,17.23
2023-05-06T01:51:40.416Z,17.54
2023-05-06T01:51:49.003Z,17.80
2023-05-06T01:51:56.648Z,17.07
2023-05-06T01:52:11.424Z,17.77
2023-05-06T01:52:18.680Z,17.93
2023-05-06T01:52:26.741Z,18.23
2023-05-06T01:52:43.621Z,17.67
2023-05-06T01:52:58.395Z,17.83
2023-05-06T01:53:05.664Z,18.31
2023-05-06T01:53:15.656Z,18.30
2023-05-06T01:53:22.928Z,17.85
2023-05-06T01:53:30.169Z,17.37
2023-05-06T01:53:44.494Z,17.37
2023-05-06T01:53:58.846Z,17.42
2023-05-06T01:54:06.513Z,17.92
2023-05-06T01:54:21.369Z,18.20
2023-05-06T01:54:28.511Z,18.35
2023-05-06T01:54:38.586Z,18.23
2023-05-06T01:54:47.893Z,18.16
2023-05-06T01:55:02.446Z,18.82
2023-05-06T01:55:10.118Z,19.37
2023-05-06T01:55:26.637Z,19.24
2023-05-06T01:55:36.017Z,19.00
2023-05-06T01:55:43.165Z,18.47
2023-05-06T01:55:50.456Z,18.40
2023-05-06T01:56:09.682Z,17.80
2023-05-06T01:56:18.843Z,17.90
2023-05-06T01:56:29.770Z,17.60
2023-05-06T01:56:36.914Z,18.04
2023-05-06T01:56:44.146Z,17.83
2023-05-06T01:56:51.599Z,18.22
2023-05-06T01:57:13.154Z,18.60
2023-05-06T01:57:20.582Z,18.40
2023-05-06T01:57:36.122Z,17.67
2023-05-06T01:57:46.277Z,17.63
2023-05-06T01:57:56.138Z,17.55
2023-05-06T01:58:04.939Z,17.67
2023-05-06T01:58:23.126Z,17.83
2023-05-06T01:58:30.395Z,17.53
2023-05-06T01:58:40.262Z,17.47
2023-05-06T01:58:49.557Z,17.29
2023-05-06T01:58:58.104Z,17.27
2023-05-06T01:59:07.190Z,17.93
2023-05-06T01:59:24.278Z,17.63
2023-05-06T01:59:32.299Z,17.39
2023-05-06T01:59:46.848Z,16.77
2023-05-06T01:59:54.337Z,16.87
2023-05-06T02:00:02.083Z,17.10
2023-05-06T02:00:19.461Z,17.60
2023-05-06T02:00:26.973Z,18.07
2023-05-06T02:00:34.318Z,18.23
2023-05-06T02:00:52.460Z,17.20
2023-05-06T02:00:59.733Z,16.83
2023-05-06T02:01:06.981Z,16.47
2023-05-06T02:01:21.453Z,17.02
2023-05-06T02:01:28.712Z,16.98
2023-05-06T02:01:35.984Z,17.50
2023-05-06T02:01:57.449Z,18.47
2023-05-06T02:02:05.104Z,18.47
2023-05-06T02:02:15.281Z,18.50
2023-05-06T02:02:25.330Z,18.42
2023-05-06T02:02:35.484Z,18.57
2023-05-06T02:02:42.990Z,18.61
2023-05-06T02:02:58.218Z,19.12
2023-05-06T02:03:06.029Z,19.20
2023-05-06T02:03:21.488Z,19.32
2023-05-06T02:03:29.402Z,18.86
2023-05-06T02:03:37.770Z,18.68
2023-05-06T02:03:45.175Z,18.63
2023-05-06T02:04:02.783Z,18.52
2023-05-06T02:04:10.336Z,18.26
2023-05-06T02:04:25.129Z,17.80
2023-05-06T02:04:32.370Z,18.00
2023-05-06T02:04:39.589Z,18.50
2023-05-06T02:04:47.249Z,18.77
2023-05-06T02:05:09.688Z,18.83
2023-05-06T02:05:22.480Z,19.05
2023-05-06T02:05:36.095Z,19.25
2023-05-06T02:05:46.769Z,19.30
2023-05-06T02:05:54.031Z,18.70
2023-05-06T02:06:01.954Z,18.28
2023-05-06T02:06:12.540Z,18.51
2023-05-06T02:06:27.130Z,19.05
2023-05-06T02:06:43.977Z,19.17
2023-05-06T02:06:53.274Z,19.21
2023-05-06T02:07:02.104Z,19.24
2023-05-06T02:07:09.570Z,19.21
2023-05-06T02:07:19.488Z,18.96
2023-05-06T02:07:33.853Z,19.43
2023-05-06T02:07:48.384Z,19.98
2023-05-06T02:07:55.797Z,19.43
2023-05-06T02:08:03.136Z,19.05
2023-05-06T02:08:10.537Z,18.66
2023-05-06T02:08:20.604Z,18.58
2023-05-06T02:08:34.857Z,18.53
2023-05-06T02:08:56.652Z,19.01
2023-05-06T02:09:05.419Z,19.14
2023-05-06T02:09:16.531Z,19.27
2023-05-06T02:09:29.468Z,19.33
2023-05-06T02:09:41.450Z,19.45
2023-05-06T02:09:51.113Z,19.40
2023-05-06T02:09:58.785Z,19.38
2023-05-06T02:10:07.203Z,19.40
2023-05-06T02:10:28.254Z,19.09
2023-05-06T02:10:42.599Z,19.13
2023-05-06T02:10:50.503Z,19.03
2023-05-06T02:10:58.888Z,19.33
2023-05-06T02:11:06.224Z,19.50
2023-05-06T02:11:13.993Z,19.84
2023-05-06T02:11:31.531Z,19.65
2023-05-06T02:11:43.808Z,19.40
2023-05-06T02:11:50.938Z,19.15
2023-05-06T02:12:08.773Z,19.13
2023-05-06T02:12:18.784Z,19.00
2023-05-06T02:12:26.025Z,19.34
2023-05-06T02:12:34.013Z,19.32
2023-05-06T02:12:48.961Z,18.94
2023-05-06T02:12:56.309Z,18.92
2023-05-06T02:13:11.881Z,18.83
2023-05-06T02:13:19.695Z,18.83
2023-05-06T02:13:27.056Z,18.53
2023-05-06T02:13:34.337Z,18.46
2023-05-06T02:13:51.721Z,18.33
2023-05-06T02:13:59.633Z,18.23
2023-05-06T02:14:15.582Z,18.22
2023-05-06T02:14:22.813Z,18.00
2023-05-06T02:14:30.388Z,18.27
2023-05-06T02:14:39.410Z,18.93
2023-05-06T02:14:53.952Z,19.03
2023-05-06T02:15:01.913Z,18.63
2023-05-06T02:15:17.797Z,18.51
2023-05-06T02:15:25.227Z,18.46
2023-05-06T02:15:36.717Z,18.08
2023-05-06T02:15:44.893Z,17.90
2023-05-06T02:15:56.648Z,17.79
2023-05-06T02:16:04.105Z,17.53
2023-05-06T02:16:20.425Z,17.00
2023-05-06T02:16:28.388Z,16.65
2023-05-06T02:16:44.039Z,17.40
2023-05-06T02:16:51.266Z,18.13
2023-05-06T02:16:58.531Z,19.04
2023-05-06T02:17:05.970Z,19.55
2023-05-06T02:17:26.737Z,19.40
2023-05-06T02:17:35.324Z,19.00
2023-05-06T02:17:43.594Z,18.68
2023-05-06T02:17:59.519Z,18.78
2023-05-06T02:18:07.270Z,18.69
2023-05-06T02:18:15.383Z,19.23
2023-05-06T02:18:30.509Z,19.45
2023-05-06T02:18:40.322Z,19.10
2023-05-06T02:18:47.820Z,19.06
2023-05-06T02:19:02.978Z,18.90
2023-05-06T02:19:10.206Z,19.00
2023-05-06T02:19:17.523Z,18.82
2023-05-06T02:19:31.890Z,18.50
2023-05-06T02:19:46.185Z,18.47
2023-05-06T02:19:53.433Z,18.62
2023-05-06T02:20:09.950Z,18.40
2023-05-06T02:20:17.481Z,18.03
2023-05-06T02:20:24.801Z,17.97
2023-05-06T02:20:34.684Z,18.20
2023-05-06T02:20:55.228Z,19.00
2023-05-06T02:21:03.422Z,18.63
2023-05-06T02:21:17.096Z,18.63
2023-05-06T02:21:26.728Z,18.21
2023-05-06T02:21:33.967Z,18.00
2023-05-06T02:21:41.318Z,17.83
2023-05-06T02:21:56.137Z,17.50
2023-05-06T02:22:06.966Z,17.33
2023-05-06T02:22:18.365Z,18.10
2023-05-06T02:22:33.307Z,18.17
2023-05-06T02:22:42.723Z,17.77
2023-05-06T02:22:52.294Z,18.00
2023-05-06T02:23:01.192Z,18.23
2023-05-06T02:23:09.021Z,17.90
2023-05-06T02:23:28.351Z,17.60
2023-05-06T02:23:38.264Z,17.83
2023-05-06T02:23:45.495Z,18.40
2023-05-06T02:23:57.165Z,18.37
2023-05-06T02:24:04.861Z,18.10
2023-05-06T02:24:12.145Z,17.70
2023-05-06T02:24:36.215Z,18.80
2023-05-06T02:24:43.710Z,18.83
2023-05-06T02:24:50.992Z,19.37
2023-05-06T02:25:05.989Z,19.43
2023-05-06T02:25:13.509Z,19.63
2023-05-06T02:25:24.121Z,20.18
2023-05-06T02:25:41.237Z,20.27
2023-05-06T02:25:48.433Z,20.43
2023-05-06T02:25:56.022Z,20.48
2023-05-06T02:26:13.820Z,20.69
2023-05-06T02:26:22.368Z,20.80
2023-05-06T02:26:29.707Z,20.70
2023-05-06T02:26:47.564Z,20.50
2023-05-06T02:26:54.745Z,20.45
2023-05-06T02:27:02.527Z,20.72
2023-05-06T02:27:17.390Z,20.77